Time;durP1;ratioP1;P1;durP2;ratioP2;P2;SDS_P1;SDS_P2;PMS_P1;PMS_P2;Temp;Humidity;BMP_temperature;BMP_pressure;BME280_temperature;BME280_humidity;BME280_pressure;Samples;Min_cycle;Max_cycle;Signal;HPM_P1;HPM_P2
2022/02/01 00:02:27;;;;;;;3.47;2.53;;;7.40;66.50;;;;;;5074506;28;20043;-76
2022/02/01 00:05:00;;;;;;;2.55;2.10;;;7.50;67.40;;;;;;5073175;28;20025;-76
2022/02/01 00:07:43;;;;;;;3.08;2.20;;;7.50;66.70;;;;;;5074409;28;20039;-76
2022/02/01 00:10:22;;;;;;;2.35;2.15;;;7.50;66.80;;;;;;5056742;28;20032;-76
2022/02/01 00:13:00;;;;;;;2.33;2.03;;;7.50;66.90;;;;;;5074237;28;20028;-76
2022/02/01 00:16:19;;;;;;;2.83;2.33;;;7.50;66.90;;;;;;5074561;28;20115;-75
2022/02/01 00:18:38;;;;;;;2.42;1.98;;;7.50;66.90;;;;;;5067710;28;20063;-76
2022/02/01 00:37:27;;;;;;;3.58;2.30;;;7.50;67.00;;;;;;5094356;28;20081;-76
2022/02/01 00:39:58;;;;;;;3.70;2.15;;;7.60;67.20;;;;;;5094188;28;20510;-76
2022/02/01 00:42:24;;;;;;;2.88;2.20;;;7.60;67.20;;;;;;5093227;28;20520;-76
2022/02/01 00:44:50;;;;;;;2.80;2.35;;;7.60;67.30;;;;;;5076019;28;20070;-76
2022/02/01 00:47:16;;;;;;;3.53;2.38;;;7.60;67.50;;;;;;5092814;28;20463;-76
2022/02/01 00:49:42;;;;;;;2.58;2.38;;;7.60;67.70;;;;;;5093989;28;20103;-76
2022/02/01 00:52:08;;;;;;;2.55;2.13;;;7.60;67.80;;;;;;5094005;28;20032;-76
2022/02/01 00:54:37;;;;;;;2.38;2.17;;;7.60;67.80;;;;;;5093677;28;20066;-76
2022/02/01 00:57:03;;;;;;;2.33;1.90;;;7.60;68.00;;;;;;5093960;28;20081;-76
2022/02/01 00:59:29;;;;;;;2.67;2.35;;;7.60;68.10;;;;;;5093593;28;20456;-76
2022/02/01 01:01:55;;;;;;;2.30;2.10;;;7.60;68.00;;;;;;5092448;28;20043;-76
2022/02/01 01:04:21;;;;;;;3.03;2.33;;;7.60;68.00;;;;;;5093866;28;20074;-76
2022/02/01 01:06:47;;;;;;;2.38;2.08;;;7.60;68.00;;;;;;5093726;28;20032;-76
2022/02/01 01:09:14;;;;;;;2.10;1.90;;;7.70;68.00;;;;;;5075271;28;20096;-76
2022/02/01 01:11:40;;;;;;;2.90;2.35;;;7.70;68.10;;;;;;5092991;28;20046;-75
2022/02/01 01:43:45;;;;;;;;;;;7.70;67.20;;;;;;5073677;28;20040;-76
2022/02/01 01:52:47;;;;;;;3.15;1.70;;;7.70;67.00;;;;;;5073172;28;19911;-75
2022/02/01 01:54:31;;;;;;;1.88;1.77;;;7.70;67.10;;;;;;5076534;28;20119;-76
2022/02/01 01:56:57;;;;;;;1.83;1.55;;;7.60;66.90;;;;;;5075076;28;20114;-75
2022/02/01 01:59:25;;;;;;;1.75;1.60;;;7.60;67.00;;;;;;5091854;28;20024;-75
2022/02/01 02:01:51;;;;;;;1.83;1.48;;;7.60;67.10;;;;;;5093025;28;20064;-75
2022/02/01 02:04:18;;;;;;;2.03;1.58;;;7.60;67.90;;;;;;5088440;28;20024;-75
2022/02/01 02:06:44;;;;;;;1.60;1.50;;;7.50;67.00;;;;;;5074852;28;20024;-75
2022/02/01 02:09:11;;;;;;;1.67;1.58;;;7.50;67.10;;;;;;5092926;28;20088;-76
2022/02/01 02:14:23;;;;;;;1.30;1.20;;;7.50;67.90;;;;;;5072731;28;20028;-75
2022/02/01 02:16:56;;;;;;;1.77;1.50;;;7.50;68.30;;;;;;5081160;28;20034;-75
2022/02/01 02:19:24;;;;;;;2.40;1.80;;;7.40;68.30;;;;;;5074736;28;20035;-75
2022/02/01 02:21:53;;;;;;;1.70;1.48;;;7.40;68.30;;;;;;5089811;28;20032;-74
2022/02/01 02:24:21;;;;;;;1.45;1.35;;;7.40;68.40;;;;;;5074677;28;20061;-75
2022/02/01 02:26:49;;;;;;;1.98;1.73;;;7.30;68.40;;;;;;5074683;28;20425;-75
2022/02/01 02:29:15;;;;;;;3.22;1.90;;;7.30;68.50;;;;;;5074641;28;20031;-75
2022/02/01 02:31:41;;;;;;;1.88;1.70;;;7.30;68.60;;;;;;5092780;28;20412;-75
2022/02/01 02:34:11;;;;;;;2.10;1.63;;;7.20;68.50;;;;;;5079754;28;20136;-75
2022/02/01 02:36:44;;;;;;;1.73;1.20;;;7.20;68.60;;;;;;5072598;28;20082;-75
2022/02/01 02:39:32;;;;;;;1.88;1.60;;;7.20;68.80;;;;;;5072468;28;20024;-75
2022/02/01 02:47:15;;;;;;;1.40;1.30;;;7.20;69.00;;;;;;5076201;28;20035;-75
2022/02/01 02:49:41;;;;;;;1.42;1.33;;;7.20;69.00;;;;;;5057923;28;20029;-75
2022/02/01 02:52:07;;;;;;;1.73;1.63;;;7.10;69.00;;;;;;5075757;28;20456;-75
2022/02/01 02:54:32;;;;;;;1.65;1.55;;;7.20;69.10;;;;;;5075786;28;20024;-75
2022/02/01 02:57:06;;;;;;;2.22;1.65;;;7.20;69.30;;;;;;5095911;28;20039;-74
2022/02/01 02:59:32;;;;;;;1.83;1.73;;;7.10;69.10;;;;;;5078084;28;20059;-75
2022/02/01 03:01:59;;;;;;;2.30;1.75;;;7.10;69.00;;;;;;5095782;28;20040;-75
2022/02/01 03:04:28;;;;;;;3.50;1.85;;;7.00;68.90;;;;;;5078701;28;20063;-75
2022/02/01 03:06:55;;;;;;;2.20;2.00;;;7.00;69.00;;;;;;5077801;28;20119;-75
2022/02/01 03:09:23;;;;;;;1.80;1.70;;;7.00;69.00;;;;;;5077530;28;20416;-75
2022/02/01 03:11:51;;;;;;;2.47;2.00;;;7.00;69.00;;;;;;5096217;28;20036;-75
2022/02/01 03:14:24;;;;;;;2.22;1.70;;;6.90;69.00;;;;;;5095735;28;20391;-75
2022/02/01 03:16:58;;;;;;;3.63;1.60;;;6.90;68.90;;;;;;5095598;28;20031;-75
2022/02/01 03:22:08;;;;;;;1.58;1.48;;;6.80;68.80;;;;;;5075129;28;20044;-75
2022/02/01 03:24:34;;;;;;;1.83;1.50;;;6.80;68.80;;;;;;5074859;28;20036;-75
2022/02/01 03:27:00;;;;;;;2.80;1.70;;;6.80;68.80;;;;;;5074232;28;20021;-75
2022/02/01 03:29:26;;;;;;;1.92;1.45;;;6.80;68.80;;;;;;5056720;28;20456;-75
2022/02/01 03:31:52;;;;;;;2.42;1.05;;;6.80;68.60;;;;;;5075302;28;20151;-75
2022/02/01 03:34:19;;;;;;;1.40;1.00;;;6.80;68.70;;;;;;5075271;28;20170;-75
2022/02/01 03:36:47;;;;;;;1.88;1.00;;;6.80;68.70;;;;;;5075323;28;20033;-75
2022/02/01 03:39:14;;;;;;;2.33;1.30;;;6.80;68.80;;;;;;5075011;28;20024;-75
2022/02/01 03:41:40;;;;;;;1.40;1.10;;;6.90;68.90;;;;;;5075055;28;20032;-75
2022/02/01 03:44:06;;;;;;;2.58;1.00;;;6.90;68.90;;;;;;5057229;28;20086;-75
2022/02/01 03:46:32;;;;;;;1.15;1.05;;;6.90;68.90;;;;;;5075018;28;20021;-75
2022/02/01 03:48:58;;;;;;;1.40;1.10;;;7.00;69.10;;;;;;5074777;28;20035;-75
2022/02/01 03:51:24;;;;;;;1.73;1.38;;;7.00;69.10;;;;;;5074754;28;20033;-75
2022/02/01 03:53:50;;;;;;;6.95;1.25;;;7.10;69.20;;;;;;5055590;28;20391;-75
2022/02/01 03:56:16;;;;;;;2.90;1.23;;;7.10;69.00;;;;;;5074967;28;20028;-75
2022/02/01 03:58:41;;;;;;;1.38;1.27;;;7.20;69.00;;;;;;5074941;28;20085;-75
2022/02/01 04:01:07;;;;;;;1.35;1.23;;;7.20;69.00;;;;;;5074451;28;20036;-75
2022/02/01 04:03:33;;;;;;;2.00;1.40;;;7.20;68.90;;;;;;5056760;28;20028;-75
2022/02/01 04:05:59;;;;;;;3.30;1.33;;;7.30;68.90;;;;;;5074831;28;20375;-75
2022/02/01 04:08:25;;;;;;;1.50;1.25;;;7.20;68.70;;;;;;5056764;28;20094;-75
2022/02/01 04:10:51;;;;;;;4.55;1.45;;;7.20;68.40;;;;;;5074460;28;20060;-75
2022/02/01 04:13:19;;;;;;;1.40;1.10;;;7.30;68.40;;;;;;5074931;28;20111;-75
2022/02/01 04:15:45;;;;;;;2.42;1.20;;;7.30;68.40;;;;;;5074594;28;20028;-75
2022/02/01 04:18:11;;;;;;;8.23;4.90;;;7.20;68.30;;;;;;5056733;28;21195;-75
2022/02/01 04:20:38;;;;;;;15.88;9.55;;;7.20;68.30;;;;;;5074417;28;20033;-75
2022/02/01 04:23:04;;;;;;;9.32;4.63;;;7.20;68.30;;;;;;5074361;28;20108;-75
2022/02/01 04:25:30;;;;;;;2.58;1.88;;;7.30;68.40;;;;;;5074357;28;20096;-75
2022/02/01 04:27:56;;;;;;;2.80;1.88;;;7.30;68.30;;;;;;5074205;28;20028;-75
2022/02/01 04:30:22;;;;;;;2.80;1.67;;;7.20;68.20;;;;;;5074241;28;20068;-75
2022/02/01 04:32:53;;;;;;;3.22;1.63;;;7.30;68.20;;;;;;5055533;28;20051;-75
2022/02/01 04:35:28;;;;;;;5.75;2.50;;;7.20;68.00;;;;;;5056331;28;20460;-75
2022/02/01 04:37:55;;;;;;;3.55;2.25;;;7.20;68.10;;;;;;5073871;28;20564;-75
2022/02/01 04:40:23;;;;;;;3.80;2.10;;;7.20;68.10;;;;;;5056232;28;20393;-75
2022/02/01 04:42:50;;;;;;;4.20;2.35;;;7.20;68.10;;;;;;5072816;28;20028;-75
2022/02/01 04:45:19;;;;;;;3.95;2.33;;;7.20;68.20;;;;;;5074023;28;20036;-76
2022/02/01 04:47:46;;;;;;;2.72;1.77;;;7.10;68.10;;;;;;5073931;28;20062;-75
2022/02/01 04:50:21;;;;;;;7.65;2.05;;;7.10;68.90;;;;;;5073879;28;20028;-75
2022/02/01 04:52:51;;;;;;;4.10;1.85;;;7.10;68.10;;;;;;5055900;28;20025;-75
2022/02/01 04:55:17;;;;;;;5.55;2.47;;;7.10;67.90;;;;;;5055925;28;20020;-75
2022/02/01 04:58:16;;;;;;;7.53;5.03;;;7.10;67.80;;;;;;5073727;28;20107;-75
2022/02/01 05:00:35;;;;;;;4.15;2.40;;;7.10;67.70;;;;;;5070184;28;20041;-75
2022/02/01 05:03:01;;;;;;;2.92;2.50;;;7.10;67.70;;;;;;5073308;28;20054;-75
2022/02/01 05:05:30;;;;;;;3.40;2.72;;;7.10;67.60;;;;;;5055308;28;20021;-75
2022/02/01 05:08:02;;;;;;;3.97;2.88;;;7.10;67.40;;;;;;5055893;28;20396;-75
2022/02/01 05:10:30;;;;;;;3.28;2.30;;;7.00;67.00;;;;;;5085645;28;20360;-75
2022/02/01 05:13:09;;;;;;;3.65;2.50;;;7.00;67.10;;;;;;5093676;28;20486;-75
2022/02/01 05:15:36;;;;;;;4.18;2.58;;;7.00;67.00;;;;;;5093454;28;20103;-75
2022/02/01 05:18:02;;;;;;;6.80;3.20;;;7.10;67.10;;;;;;5075300;28;20024;-75
2022/02/01 05:20:50;;;;;;;3.13;2.35;;;7.10;67.00;;;;;;5093775;28;20121;-75
2022/02/01 05:23:17;;;;;;;3.75;2.67;;;7.10;66.90;;;;;;5093518;28;20043;-75
2022/02/01 05:25:44;;;;;;;4.03;2.72;;;7.00;66.80;;;;;;5093457;28;20024;-75
2022/02/01 05:28:10;;;;;;;5.88;3.53;;;7.10;66.70;;;;;;5093111;28;20447;-75
2022/02/01 05:30:38;;;;;;;3.20;2.33;;;7.00;66.50;;;;;;5093397;28;20482;-75
2022/02/01 05:33:06;;;;;;;3.55;2.78;;;7.00;66.40;;;;;;5093074;28;20083;-75
2022/02/01 05:35:32;;;;;;;3.22;2.25;;;7.10;66.50;;;;;;5075421;28;20111;-75
2022/02/01 05:37:58;;;;;;;3.15;2.28;;;7.10;66.70;;;;;;5093477;28;20103;-75
2022/02/01 05:40:26;;;;;;;3.65;2.70;;;7.10;66.80;;;;;;5081858;28;20044;-75
2022/02/01 05:43:05;;;;;;;5.45;2.45;;;7.10;67.20;;;;;;5073223;28;20052;-75
2022/02/01 05:45:34;;;;;;;6.75;3.13;;;7.10;66.80;;;;;;5054975;28;20078;-75
2022/02/01 05:48:03;;;;;;;8.32;2.70;;;7.10;66.80;;;;;;5071774;28;20364;-75
2022/02/01 05:50:30;;;;;;;5.40;2.85;;;7.10;66.60;;;;;;5055159;28;20028;-75
2022/02/01 05:52:57;;;;;;;4.05;2.33;;;7.10;66.30;;;;;;5073056;28;20025;-75
2022/02/01 05:55:23;;;;;;;3.03;2.20;;;7.00;66.20;;;;;;5072771;28;20027;-75
2022/02/01 05:57:49;;;;;;;3.03;2.35;;;7.00;66.30;;;;;;5055049;28;20021;-75
2022/02/01 06:00:17;;;;;;;3.53;2.50;;;7.00;66.50;;;;;;5054953;28;20043;-75
2022/02/01 06:02:43;;;;;;;2.92;2.20;;;7.00;66.60;;;;;;5054949;28;20024;-76
2022/02/01 06:05:09;;;;;;;5.22;2.70;;;7.00;66.40;;;;;;5054605;28;20028;-75
2022/02/01 06:07:35;;;;;;;4.70;2.58;;;7.00;66.20;;;;;;5072871;28;20029;-75
2022/02/01 06:10:01;;;;;;;5.18;3.20;;;7.00;66.20;;;;;;5062508;28;20168;-75
2022/02/01 06:12:27;;;;;;;7.80;3.05;;;6.90;65.90;;;;;;5093042;28;20025;-75
2022/02/01 06:14:53;;;;;;;6.47;3.17;;;6.90;65.70;;;;;;5092755;28;20031;-75
2022/02/01 06:17:18;;;;;;;10.85;4.78;;;6.90;65.70;;;;;;5074731;28;20225;-75
2022/02/01 06:19:44;;;;;;;6.15;3.28;;;6.80;65.60;;;;;;5076388;28;20036;-75
2022/02/01 06:22:10;;;;;;;6.55;3.50;;;6.80;65.40;;;;;;5076205;28;20051;-75
2022/02/01 06:24:37;;;;;;;4.70;3.40;;;6.80;65.50;;;;;;5076352;28;20090;-75
2022/02/01 06:27:04;;;;;;;7.75;3.92;;;6.80;65.50;;;;;;5058728;28;20081;-75
2022/02/01 06:29:30;;;;;;;4.90;3.72;;;6.80;65.70;;;;;;5076361;28;20025;-75
2022/02/01 06:31:55;;;;;;;7.45;4.20;;;6.80;65.80;;;;;;5058481;28;20040;-75
2022/02/01 06:34:24;;;;;;;6.60;4.40;;;6.80;65.70;;;;;;5076015;28;20053;-75
2022/02/01 06:36:50;;;;;;;9.75;4.63;;;6.80;65.60;;;;;;5076156;28;20452;-75
2022/02/01 06:39:15;;;;;;;11.07;5.10;;;6.80;65.50;;;;;;5076331;28;20028;-75
2022/02/01 06:41:41;;;;;;;7.55;4.20;;;6.80;65.50;;;;;;5075983;28;20089;-75
2022/02/01 06:44:08;;;;;;;8.25;4.50;;;6.80;65.70;;;;;;5076054;28;20082;-75
2022/02/01 06:46:35;;;;;;;11.07;5.00;;;6.80;65.90;;;;;;5076234;28;20059;-75
2022/02/01 06:49:00;;;;;;;8.15;4.82;;;6.80;66.00;;;;;;5075934;28;20024;-75
2022/02/01 06:51:27;;;;;;;8.45;4.78;;;6.90;66.20;;;;;;5076063;28;20024;-75
2022/02/01 06:53:55;;;;;;;5.45;3.92;;;6.90;66.40;;;;;;5058145;28;20020;-76
2022/02/01 06:56:28;;;;;;;10.23;4.25;;;6.90;66.20;;;;;;5075851;28;20021;-75
2022/02/01 06:58:57;;;;;;;8.40;3.97;;;7.00;66.20;;;;;;5076150;28;20210;-75
2022/02/01 07:01:24;;;;;;;9.52;3.65;;;7.00;66.00;;;;;;5076040;28;20032;-75
2022/02/01 07:03:50;;;;;;;4.75;3.53;;;7.00;66.10;;;;;;5057713;28;20024;-75
2022/02/01 07:06:16;;;;;;;6.90;3.92;;;7.00;66.30;;;;;;5075935;28;20086;-75
2022/02/01 07:08:44;;;;;;;10.20;3.92;;;7.00;66.40;;;;;;5057950;28;20025;-75
2022/02/01 07:11:10;;;;;;;9.27;4.95;;;7.00;66.40;;;;;;5075675;28;20078;-75
2022/02/01 07:13:37;;;;;;;7.38;4.05;;;7.00;66.30;;;;;;5057769;28;20025;-75
2022/02/01 07:16:04;;;;;;;7.10;3.15;;;7.00;66.20;;;;;;5057739;28;20074;-74
2022/02/01 07:18:30;;;;;;;4.47;3.13;;;7.00;66.30;;;;;;5075910;28;20025;-75
2022/02/01 07:20:56;;;;;;;5.97;3.30;;;7.10;66.40;;;;;;5076994;28;20037;-75
2022/02/01 07:23:23;;;;;;;7.13;5.90;;;7.10;66.40;;;;;;5057944;28;20025;-75
2022/02/01 07:25:51;;;;;;;7.30;4.20;;;7.10;66.70;;;;;;5075241;28;20029;-75
2022/02/01 07:28:17;;;;;;;8.65;3.65;;;7.10;66.80;;;;;;5074254;28;20074;-75
2022/02/01 07:30:44;;;;;;;10.45;3.85;;;7.10;66.90;;;;;;5075375;28;20036;-75
2022/02/01 07:33:10;;;;;;;9.10;4.55;;;7.10;67.10;;;;;;5075149;28;20049;-75
2022/02/01 07:35:39;;;;;;;6.38;3.63;;;7.20;67.30;;;;;;5057038;28;20036;-75
2022/02/01 07:38:07;;;;;;;6.63;3.65;;;7.20;67.30;;;;;;5075560;28;20407;-75
2022/02/01 07:40:33;;;;;;;6.40;3.30;;;7.30;67.50;;;;;;5087263;28;20111;-75
2022/02/01 07:42:59;;;;;;;10.00;4.75;;;7.30;67.60;;;;;;5095470;28;20028;-75
2022/02/01 07:45:28;;;;;;;9.85;4.40;;;7.40;67.60;;;;;;5077386;28;20032;-75
2022/02/01 07:48:01;;;;;;;8.10;3.92;;;7.40;67.20;;;;;;5077315;28;20437;-76
2022/02/01 07:50:28;;;;;;;5.95;3.38;;;7.40;66.90;;;;;;5077232;28;20032;-75
2022/02/01 07:52:54;;;;;;;9.35;3.38;;;7.40;66.90;;;;;;5077091;28;20115;-75
2022/02/01 07:55:20;;;;;;;6.10;3.60;;;7.40;67.10;;;;;;5095517;28;20467;-75
2022/02/01 07:57:46;;;;;;;8.07;4.80;;;7.50;67.50;;;;;;5093788;28;20115;-75
2022/02/01 08:00:12;;;;;;;12.23;6.95;;;7.50;67.20;;;;;;5077028;28;20426;-75
2022/02/01 08:02:38;;;;;;;10.65;5.10;;;7.50;66.90;;;;;;5094955;28;20028;-75
2022/02/01 08:05:04;;;;;;;9.35;5.93;;;7.60;67.00;;;;;;5094646;28;20035;-75
2022/02/01 08:07:30;;;;;;;13.60;6.47;;;7.60;67.00;;;;;;5094993;28;20028;-75
2022/02/01 08:10:00;;;;;;;9.05;5.85;;;7.70;66.80;;;;;;5073049;28;20039;-75
2022/02/01 08:20:38;;;;;;;12.98;7.13;;;7.70;66.10;;;;;;5077411;28;19923;-74
2022/02/01 08:23:03;;;;;;;12.25;6.28;;;7.70;65.30;;;;;;5072921;28;20127;-75
2022/02/01 08:25:32;;;;;;;12.43;6.82;;;7.70;64.90;;;;;;5072868;28;20063;-74
2022/02/01 08:28:01;;;;;;;13.82;6.55;;;7.70;64.70;;;;;;5055996;28;20120;-75
2022/02/01 08:30:27;;;;;;;11.85;6.97;;;7.70;65.00;;;;;;5077760;28;20025;-75
2022/02/01 08:32:53;;;;;;;14.57;7.68;;;7.70;64.90;;;;;;5087251;28;20059;-74
2022/02/01 08:35:19;;;;;;;12.40;6.70;;;7.70;64.40;;;;;;5079746;28;20032;-75
2022/02/01 08:37:46;;;;;;;15.88;6.78;;;7.70;64.40;;;;;;5092888;28;20028;-74
2022/02/01 08:40:13;;;;;;;11.77;6.78;;;7.70;64.40;;;;;;5084640;28;20024;-75
2022/02/01 08:42:43;;;;;;;14.90;6.20;;;7.70;64.30;;;;;;5078996;28;20054;-75
2022/02/01 08:45:11;;;;;;;12.05;6.55;;;7.80;64.20;;;;;;5093924;28;20060;-75
2022/02/01 08:47:37;;;;;;;10.25;5.78;;;7.80;63.90;;;;;;5088115;28;20074;-75
2022/02/01 08:50:04;;;;;;;11.20;5.93;;;7.80;64.10;;;;;;5082700;28;20024;-75
2022/02/01 08:52:39;;;;;;;13.45;5.80;;;7.80;64.00;;;;;;5073834;28;20021;-75
2022/02/01 08:55:08;;;;;;;10.10;5.93;;;7.80;63.90;;;;;;5073947;28;20017;-75
2022/02/01 08:57:34;;;;;;;8.05;5.30;;;7.90;63.90;;;;;;5081354;28;20031;-76
2022/02/01 09:00:11;;;;;;;9.90;5.20;;;7.80;63.40;;;;;;5093932;28;20021;-77
2022/02/01 09:02:37;;;;;;;7.82;4.63;;;7.80;63.10;;;;;;5092832;28;20020;-75
2022/02/01 09:05:06;;;;;;;8.52;5.32;;;7.80;63.30;;;;;;5088374;28;20021;-78
2022/02/01 09:07:34;;;;;;;8.38;5.00;;;7.80;63.50;;;;;;5078676;28;20024;-75
2022/02/01 09:10:00;;;;;;;10.05;5.22;;;7.80;63.90;;;;;;5065736;28;20020;-76
2022/02/01 09:12:26;;;;;;;7.78;4.63;;;7.80;64.10;;;;;;5080788;28;20033;-76
2022/02/01 09:14:52;;;;;;;8.75;5.07;;;7.80;64.20;;;;;;5072563;28;20024;-76
2022/02/01 09:17:20;;;;;;;9.02;4.70;;;7.80;64.20;;;;;;5075868;28;20021;-76
2022/02/01 09:19:46;;;;;;;8.52;4.60;;;7.80;64.10;;;;;;5077229;28;20480;-76
2022/02/01 09:22:13;;;;;;;8.45;5.10;;;7.80;64.00;;;;;;5088891;28;20032;-76
2022/02/01 09:24:41;;;;;;;7.65;4.35;;;7.90;64.40;;;;;;5073514;28;20025;-76
2022/02/01 09:27:08;;;;;;;9.75;4.88;;;7.90;64.70;;;;;;5068648;28;20464;-76
2022/02/01 09:29:35;;;;;;;6.25;4.05;;;7.90;64.60;;;;;;5087127;28;20053;-76
2022/02/01 09:32:01;;;;;;;8.07;5.40;;;7.90;63.60;;;;;;5093220;28;20032;-73
2022/02/01 09:34:29;;;;;;;22.63;12.00;;;7.90;63.60;;;;;;5055039;28;20052;-73
2022/02/01 09:36:56;;;;;;;35.97;17.10;;;7.90;63.90;;;;;;5055355;28;20085;-74
2022/02/01 09:39:24;;;;;;;43.65;20.58;;;8.00;64.40;;;;;;5055310;28;20031;-74
2022/02/01 09:41:51;;;;;;;46.30;22.23;;;8.00;64.90;;;;;;5072900;28;20487;-75
2022/02/01 09:44:17;;;;;;;10.98;6.03;;;8.10;64.90;;;;;;5056202;28;20070;-77
2022/02/01 09:46:45;;;;;;;7.45;4.57;;;8.20;65.20;;;;;;5093300;28;20017;-77
2022/02/01 09:49:15;;;;;;;5.88;4.05;;;8.20;63.20;;;;;;5062677;28;20037;-77
2022/02/01 09:51:41;;;;;;;13.82;4.55;;;8.20;63.00;;;;;;5073232;28;20029;-77
2022/02/01 09:54:07;;;;;;;7.20;4.55;;;8.10;63.10;;;;;;5076248;28;20035;-78
2022/02/01 09:56:33;;;;;;;6.43;3.92;;;8.10;62.70;;;;;;5058156;28;20028;-78
2022/02/01 09:58:59;;;;;;;7.47;4.18;;;8.00;62.90;;;;;;5058952;28;20484;-79
2022/02/01 10:01:30;;;;;;;6.72;4.25;;;8.10;63.40;;;;;;5058932;28;20037;-79
2022/02/01 10:04:02;;;;;;;7.63;3.97;;;8.00;63.60;;;;;;5076952;28;20092;-79
2022/02/01 10:06:32;;;;;;;6.50;4.13;;;8.00;63.50;;;;;;5076735;28;20024;-81
2022/02/01 10:09:04;;;;;;;5.90;4.00;;;8.00;63.50;;;;;;5058982;28;20029;-79
2022/02/01 10:11:57;;;;;;;7.30;4.32;;;7.90;63.60;;;;;;5088605;28;20416;-80
2022/02/01 10:14:29;;;;;;;6.65;4.63;;;7.90;63.80;;;;;;5075361;28;20475;-80
2022/02/01 10:16:58;;;;;;;6.70;3.88;;;7.90;64.00;;;;;;5095940;28;20028;-80
2022/02/01 10:19:25;;;;;;;5.80;3.90;;;7.90;64.20;;;;;;5095759;28;20449;-80
2022/02/01 10:21:59;;;;;;;6.03;4.65;;;7.80;64.20;;;;;;5095723;28;20028;-80
2022/02/01 10:24:33;;;;;;;;;;;7.80;64.20;;;;;;5097697;28;20089;-81
2022/02/01 10:27:16;;;;;;;7.30;4.95;;;7.80;64.20;;;;;;5078803;28;20327;-80
2022/02/01 10:30:07;;;;;;;8.50;5.10;;;7.80;64.10;;;;;;5097267;28;20032;-80
2022/02/01 10:32:52;;;;;;;7.65;5.43;;;7.70;64.10;;;;;;5095612;28;20036;-80
2022/02/01 10:35:26;;;;;;;6.90;4.68;;;7.70;64.00;;;;;;5095639;28;20410;-81
2022/02/01 10:38:09;;;;;;;8.18;5.32;;;7.70;64.00;;;;;;5095509;28;20032;-80
2022/02/01 10:40:41;;;;;;;8.05;5.18;;;7.50;64.00;;;;;;5096656;28;20042;-80
2022/02/01 10:43:27;;;;;;;7.03;5.18;;;7.50;64.30;;;;;;5096858;28;20055;-80
2022/02/01 10:46:01;;;;;;;7.88;5.72;;;7.50;64.70;;;;;;5096696;28;20125;-81
2022/02/01 10:48:28;;;;;;;8.65;5.50;;;7.50;64.70;;;;;;5095374;28;20118;-80
2022/02/01 10:51:04;;;;;;;9.20;5.28;;;7.40;64.80;;;;;;5096202;28;20066;-80
2022/02/01 10:53:30;;;;;;;9.43;5.47;;;7.40;64.60;;;;;;5095306;28;20534;-80
2022/02/01 10:55:58;;;;;;;10.73;5.40;;;7.40;64.90;;;;;;5096412;28;20103;-79
2022/02/01 10:58:24;;;;;;;7.40;5.28;;;7.30;65.10;;;;;;5095125;28;20028;-79
2022/02/01 11:00:51;;;;;;;7.05;4.65;;;7.30;65.10;;;;;;5096139;28;20032;-79
2022/02/01 11:03:17;;;;;;;9.18;4.65;;;7.30;65.30;;;;;;5094561;28;20031;-79
2022/02/01 11:05:53;;;;;;;6.82;4.93;;;7.30;65.50;;;;;;5095910;28;20024;-79
2022/02/01 11:08:26;;;;;;;7.25;4.70;;;7.30;65.20;;;;;;5096217;28;20070;-80
2022/02/01 11:10:57;;;;;;;6.72;5.25;;;7.30;65.20;;;;;;5096160;28;20024;-80
2022/02/01 11:13:34;;;;;;;10.20;5.80;;;7.30;65.30;;;;;;5096105;28;20026;-80
2022/02/01 11:16:03;;;;;;;7.43;5.47;;;7.20;65.50;;;;;;5096175;28;20024;-80
2022/02/01 11:18:30;;;;;;;9.25;6.00;;;7.20;65.20;;;;;;5095710;28;20028;-81
2022/02/01 11:21:05;;;;;;;9.45;6.43;;;7.20;65.40;;;;;;5095880;28;20035;-79
2022/02/01 11:24:01;;;;;;;10.05;6.13;;;7.20;65.20;;;;;;5077760;28;20490;-79
2022/02/01 11:26:49;;;;;;;8.52;6.22;;;7.10;65.30;;;;;;5095888;28;20375;-80
2022/02/01 11:29:50;;;;;;;8.45;6.30;;;7.10;65.40;;;;;;5095877;28;20386;-80
2022/02/01 11:32:18;;;;;;;9.35;6.53;;;7.20;65.70;;;;;;5077463;28;20028;-80
2022/02/01 11:34:44;;;;;;;9.93;5.85;;;7.20;65.80;;;;;;5077489;28;20562;-80
2022/02/01 11:37:15;;;;;;;7.72;5.72;;;7.20;66.20;;;;;;5095586;28;20103;-80
2022/02/01 11:39:50;;;;;;;8.98;5.90;;;7.20;66.30;;;;;;5077197;28;20456;-80
2022/02/01 11:42:18;;;;;;;9.27;5.72;;;7.30;66.60;;;;;;5076865;28;20051;-79
2022/02/01 11:44:44;;;;;;;9.15;5.82;;;7.40;66.50;;;;;;5077089;28;20028;-80
2022/02/01 11:47:10;;;;;;;8.48;5.70;;;7.40;66.30;;;;;;5077355;28;20032;-80
2022/02/01 11:49:53;;;;;;;8.77;5.32;;;7.40;66.10;;;;;;5095386;28;20459;-81
2022/02/01 11:52:21;;;;;;;7.55;5.13;;;7.50;66.00;;;;;;5077068;28;20024;-80
2022/02/01 11:54:48;;;;;;;15.68;6.82;;;7.50;65.70;;;;;;5077167;28;20399;-81
2022/02/01 11:57:24;;;;;;;12.25;5.55;;;7.50;65.60;;;;;;5076713;28;20028;-81
2022/02/01 11:59:57;;;;;;;14.50;5.43;;;7.50;65.40;;;;;;5095026;28;20032;-81
2022/02/01 12:02:42;;;;;;;10.98;4.85;;;7.40;64.90;;;;;;5076623;28;20028;-81
2022/02/01 12:05:28;;;;;;;13.00;4.68;;;7.40;64.60;;;;;;5076935;28;20046;-80
2022/02/01 12:08:15;;;;;;;9.07;4.38;;;7.30;64.30;;;;;;5076661;28;20142;-81
2022/02/01 12:10:50;;;;;;;11.30;3.72;;;7.40;64.50;;;;;;5076676;28;20074;-80
2022/02/01 12:13:26;;;;;;;16.60;4.82;;;7.30;64.40;;;;;;5076234;28;20020;-80
2022/02/01 12:15:54;;;;;;;16.77;4.25;;;7.30;64.30;;;;;;5076221;28;20030;-81
2022/02/01 12:18:39;;;;;;;16.45;4.07;;;7.30;64.00;;;;;;5094694;28;20035;-81
2022/02/01 12:21:05;;;;;;;14.18;3.50;;;7.30;64.30;;;;;;5076855;28;20055;-81
2022/02/01 12:23:32;;;;;;;14.75;4.05;;;7.40;64.80;;;;;;5076462;28;20028;-81
2022/02/01 12:25:58;;;;;;;18.05;4.50;;;7.40;64.40;;;;;;5094435;28;20063;-81
2022/02/01 12:28:30;;;;;;;11.10;3.92;;;7.40;64.30;;;;;;5094410;28;20028;-83
2022/02/01 12:31:11;;;;;;;19.88;3.92;;;7.40;64.40;;;;;;5094525;28;20077;-81
2022/02/01 12:33:46;;;;;;;10.90;3.92;;;7.50;63.80;;;;;;5076233;28;20517;-82
2022/02/01 12:36:12;;;;;;;;;;;7.50;64.00;;;;;;5095074;28;20103;-82
2022/02/01 12:38:40;;;;;;;15.88;5.15;;;7.50;63.60;;;;;;5076529;28;19904;-81
2022/02/01 12:41:18;;;;;;;23.30;5.82;;;7.50;63.20;;;;;;5094609;28;20052;-81
2022/02/01 12:45:46;;;;;;;19.10;4.70;;;7.50;62.50;;;;;;5076359;28;20110;-82
2022/02/01 12:46:54;;;;;;;9.70;2.72;;;7.50;61.90;;;;;;5094553;28;20394;-82
2022/02/01 12:49:38;;;;;;;18.95;3.90;;;7.50;62.60;;;;;;5076572;28;20020;-82
2022/02/01 12:52:15;;;;;;;18.83;4.20;;;7.50;62.60;;;;;;5076440;28;20085;-82
2022/02/01 12:54:41;;;;;;;12.82;3.33;;;7.50;62.50;;;;;;5094016;28;20044;-82
2022/02/01 12:57:12;;;;;;;12.68;3.25;;;7.60;62.50;;;;;;5076368;28;20059;-82
2022/02/01 12:59:40;;;;;;;20.38;3.70;;;7.60;62.30;;;;;;5076121;28;20031;-82
2022/02/01 13:02:13;;;;;;;23.98;3.75;;;7.60;62.10;;;;;;5075987;28;20085;-83
2022/02/01 13:04:39;;;;;;;17.45;3.33;;;7.50;61.40;;;;;;5076004;28;20034;-83
2022/02/01 13:07:18;;;;;;;15.45;3.40;;;7.50;61.60;;;;;;5076037;28;20487;-83
2022/02/01 13:15:40;;;;;;;15.68;2.83;;;7.40;62.00;;;;;;5094563;28;20153;-83
2022/02/01 13:21:02;;;;;;;21.70;3.85;;;7.40;63.20;;;;;;5069604;28;20468;-82
2022/02/01 13:24:00;;;;;;;15.38;3.72;;;7.40;63.50;;;;;;5093812;28;20028;-81
2022/02/01 13:26:29;;;;;;;22.40;5.22;;;7.40;63.50;;;;;;4975572;28;20125;-82
2022/02/01 13:28:58;;;;;;;16.00;2.92;;;7.40;63.50;;;;;;4991897;28;20132;-82
2022/02/01 13:31:29;;;;;;;16.15;3.92;;;7.40;63.40;;;;;;4991599;28;20034;-82
2022/02/01 13:34:04;;;;;;;15.20;4.10;;;7.40;63.50;;;;;;4991419;28;20054;-82
2022/02/01 13:36:43;;;;;;;14.52;3.47;;;7.40;63.80;;;;;;4991537;28;20577;-82
2022/02/01 13:39:09;;;;;;;11.10;3.13;;;7.40;63.60;;;;;;4991703;28;20026;-82
2022/02/01 13:41:36;;;;;;;17.02;4.03;;;7.30;63.40;;;;;;4991564;28;20026;-82
2022/02/01 13:44:03;;;;;;;16.33;3.53;;;7.30;63.70;;;;;;4991805;28;20409;-82
2022/02/01 13:46:33;;;;;;;17.15;4.20;;;7.30;63.90;;;;;;4991682;28;20039;-81
2022/02/01 13:49:08;;;;;;;16.92;4.07;;;7.20;63.80;;;;;;4991506;28;20584;-82
2022/02/01 13:51:51;;;;;;;14.00;3.70;;;7.20;63.80;;;;;;4991499;28;20177;-83
2022/02/01 13:54:18;;;;;;;10.63;3.22;;;7.10;63.90;;;;;;4975281;28;20034;-83
2022/02/01 13:56:47;;;;;;;11.25;3.67;;;7.20;64.20;;;;;;4991569;28;20042;-82
2022/02/01 13:59:18;;;;;;;18.00;3.95;;;7.10;64.20;;;;;;4991569;28;20026;-83
2022/02/01 14:01:45;;;;;;;13.60;3.75;;;7.10;64.20;;;;;;5031363;28;20040;-82
2022/02/01 14:04:28;;;;;;;18.20;3.33;;;7.10;64.30;;;;;;5075697;28;20028;-82
2022/02/01 14:07:08;;;;;;;16.77;3.65;;;7.10;64.40;;;;;;5075405;28;20031;-82
2022/02/01 14:09:58;;;;;;;13.68;3.42;;;7.10;64.30;;;;;;5075561;28;20046;-81
2022/02/01 14:26:02;;;;;;;22.23;4.18;;;7.30;65.40;;;;;;5093207;28;20031;-82
2022/02/01 14:33:56;;;;;;;14.68;3.70;;;7.40;65.00;;;;;;5093302;28;20062;-82
2022/02/01 14:36:26;;;;;;;16.27;3.22;;;7.40;64.90;;;;;;5075054;28;20119;-81
2022/02/01 14:44:34;;;;;;;12.90;2.58;;;7.40;64.70;;;;;;5096457;28;20047;-81
2022/02/01 14:47:01;;;;;;;11.45;2.63;;;7.30;64.10;;;;;;5078772;28;20364;-82
2022/02/01 14:49:27;;;;;;;13.50;2.58;;;7.30;64.40;;;;;;5078478;28;20025;-82
2022/02/01 14:51:54;;;;;;;11.43;2.72;;;7.30;64.50;;;;;;5096620;28;20024;-81
2022/02/01 14:54:29;;;;;;;13.50;2.30;;;7.30;64.50;;;;;;5096633;28;20028;-82